Time;durP1;ratioP1;P1;durP2;ratioP2;P2;SDS_P1;SDS_P2;PMS_P1;PMS_P2;Temp;Humidity;BMP_temperature;BMP_pressure;BME280_temperature;BME280_humidity;BME280_pressure;Samples;Min_cycle;Max_cycle;Signal;HPM_P1;HPM_P2
2022/06/04 00:00:26;;;;;;;8.70;7.93;;;20.00;99.90;;;;;;5055663;28;20193;-70
2022/06/04 00:02:53;;;;;;;8.93;8.23;;;20.00;99.90;;;;;;5060087;28;20263;-70
2022/06/04 00:05:25;;;;;;;8.00;7.40;;;20.00;99.90;;;;;;5066531;28;20204;-70
2022/06/04 00:07:51;;;;;;;7.70;7.10;;;20.00;99.90;;;;;;5054621;28;20186;-70
2022/06/04 00:15:53;;;;;;;7.63;6.93;;;20.00;99.90;;;;;;5042775;28;20223;-70
2022/06/04 00:18:21;;;;;;;7.73;7.10;;;20.00;99.90;;;;;;5065385;28;20260;-70
2022/06/04 00:20:48;;;;;;;7.57;6.87;;;20.00;99.90;;;;;;5057350;28;20672;-70
2022/06/04 00:23:14;;;;;;;7.95;7.15;;;19.90;99.90;;;;;;5060826;28;20927;-69
2022/06/04 00:25:43;;;;;;;8.33;7.63;;;19.90;99.90;;;;;;5060064;28;20265;-69
2022/06/04 00:28:10;;;;;;;8.47;7.67;;;19.90;99.90;;;;;;5064665;28;20197;-69
2022/06/04 00:30:37;;;;;;;7.90;7.27;;;19.80;99.90;;;;;;5065965;28;20575;-69
2022/06/04 00:33:03;;;;;;;7.73;7.03;;;19.80;99.90;;;;;;5058013;28;20292;-69
2022/06/04 00:35:30;;;;;;;7.90;7.20;;;19.80;99.90;;;;;;5062625;28;20213;-69
2022/06/04 00:37:56;;;;;;;8.43;7.73;;;19.80;99.90;;;;;;5058686;28;22075;-69
2022/06/04 00:41:01;;;;;;;7.63;6.97;;;19.70;99.90;;;;;;5059286;28;20216;-69
2022/06/04 00:43:27;;;;;;;8.40;7.60;;;19.70;99.90;;;;;;5064129;28;20784;-69
2022/06/04 00:46:08;;;;;;;7.67;7.07;;;19.70;99.90;;;;;;5063068;28;20173;-70
2022/06/04 00:48:34;;;;;;;8.60;7.70;;;19.80;99.90;;;;;;5070723;28;20196;-70
2022/06/04 00:51:03;;;;;;;9.10;8.30;;;19.70;99.90;;;;;;5067385;28;20184;-70
2022/06/04 00:53:29;;;;;;;9.93;8.93;;;19.60;99.90;;;;;;5066547;28;20256;-70
2022/06/04 00:56:37;;;;;;;9.60;8.70;;;19.50;99.90;;;;;;5063734;28;20433;-70
2022/06/04 00:59:42;;;;;;;8.80;8.00;;;19.40;99.90;;;;;;5062233;28;20260;-70
2022/06/04 01:02:14;;;;;;;9.33;8.53;;;19.30;99.90;;;;;;5059915;28;20185;-70
2022/06/04 01:04:48;;;;;;;9.30;8.40;;;19.20;99.90;;;;;;5064286;28;20245;-70
2022/06/04 01:07:20;;;;;;;11.67;9.10;;;19.30;99.90;;;;;;5067573;28;20185;-70
2022/06/04 01:10:06;;;;;;;9.77;8.97;;;19.30;99.90;;;;;;5070135;28;20241;-70
2022/06/04 01:12:54;;;;;;;8.50;7.80;;;19.30;99.90;;;;;;5057105;28;20210;-70
2022/06/04 01:16:00;;;;;;;9.77;8.83;;;19.30;99.90;;;;;;5061237;28;20209;-70
2022/06/04 01:19:17;;;;;;;12.00;10.27;;;19.30;99.90;;;;;;5065146;28;20656;-70
2022/06/04 01:21:50;;;;;;;12.90;11.60;;;19.30;99.90;;;;;;5021469;28;20186;-70
2022/06/04 01:24:40;;;;;;;12.60;11.50;;;19.20;99.90;;;;;;5036184;28;20198;-70
2022/06/04 01:27:06;;;;;;;11.90;10.80;;;19.10;99.90;;;;;;5052647;28;20243;-70
2022/06/04 01:29:38;;;;;;;11.77;10.67;;;19.10;99.90;;;;;;5066263;28;20189;-70
2022/06/04 01:32:10;;;;;;;12.53;11.33;;;19.00;99.90;;;;;;5046324;28;20193;-70
2022/06/04 01:34:46;;;;;;;12.20;11.13;;;19.00;99.90;;;;;;5072829;28;20235;-70
2022/06/04 01:37:26;;;;;;;12.20;11.10;;;19.00;99.90;;;;;;5065938;28;20212;-71
2022/06/04 01:42:43;;;;;;;10.37;9.47;;;18.90;99.90;;;;;;5067196;28;21218;-70
2022/06/04 01:45:12;;;;;;;9.27;8.57;;;19.00;99.90;;;;;;5066447;28;20229;-70
2022/06/04 01:47:39;;;;;;;10.53;9.53;;;19.00;99.90;;;;;;5066452;28;20185;-70
2022/06/04 01:50:12;;;;;;;10.53;9.53;;;18.90;99.90;;;;;;5062109;28;20177;-70
2022/06/04 01:52:40;;;;;;;10.23;9.20;;;18.90;99.90;;;;;;5066625;28;20638;-70
2022/06/04 01:55:18;;;;;;;9.67;8.77;;;18.90;99.90;;;;;;5066568;28;20196;-70
2022/06/04 01:57:50;;;;;;;9.93;9.03;;;18.90;99.90;;;;;;5061973;28;20181;-70
2022/06/04 02:00:19;;;;;;;9.93;9.03;;;18.90;99.90;;;;;;5061854;28;20213;-70
2022/06/04 02:03:03;;;;;;;9.43;8.63;;;19.00;99.90;;;;;;5064620;28;20235;-70
2022/06/04 02:06:11;;;;;;;9.10;8.30;;;19.00;99.90;;;;;;5059869;28;20751;-70
2022/06/04 02:08:52;;;;;;;10.63;9.53;;;19.10;99.90;;;;;;5058261;28;20200;-70
2022/06/04 02:11:21;;;;;;;10.10;9.23;;;18.90;99.90;;;;;;5063333;28;20213;-70
2022/06/04 02:13:49;;;;;;;11.07;10.10;;;18.90;99.90;;;;;;5066646;28;20239;-70
2022/06/04 02:16:42;;;;;;;10.17;9.27;;;18.80;99.90;;;;;;5061543;28;20205;-70
2022/06/04 02:19:07;;;;;;;10.80;9.80;;;18.80;99.90;;;;;;5065473;28;20549;-70
2022/06/04 02:21:34;;;;;;;11.77;10.67;;;18.80;99.90;;;;;;5065545;28;20234;-70
2022/06/04 02:24:00;;;;;;;11.90;9.60;;;18.80;99.90;;;;;;5055722;28;20204;-70
2022/06/04 02:26:28;;;;;;;11.60;10.53;;;18.80;99.90;;;;;;5065166;28;20614;-70
2022/06/04 02:28:56;;;;;;;10.10;9.20;;;18.80;99.90;;;;;;5068993;28;20181;-70
2022/06/04 02:31:42;;;;;;;10.77;9.77;;;18.80;99.90;;;;;;5064647;28;20227;-71
2022/06/04 02:34:33;;;;;;;12.37;9.87;;;18.70;99.90;;;;;;5065947;28;20220;-71
2022/06/04 02:37:24;;;;;;;17.33;12.97;;;18.70;99.90;;;;;;5064172;28;20997;-70
2022/06/04 02:40:20;;;;;;;15.73;14.20;;;18.70;99.90;;;;;;5067194;28;20177;-70
2022/06/04 02:42:58;;;;;;;13.73;11.30;;;18.70;99.90;;;;;;5063666;28;20591;-70
2022/06/04 02:45:33;;;;;;;11.80;10.60;;;18.70;99.90;;;;;;5066572;28;20224;-70
2022/06/04 02:48:06;;;;;;;11.03;9.90;;;18.60;99.90;;;;;;5063487;28;20176;-70
2022/06/04 02:51:04;;;;;;;11.77;10.00;;;18.50;99.90;;;;;;5061800;28;20643;-70
2022/06/04 02:53:32;;;;;;;9.70;8.87;;;18.50;99.90;;;;;;5059034;28;20298;-70
2022/06/04 02:56:06;;;;;;;11.07;9.93;;;18.50;99.90;;;;;;5066547;28;20205;-70
2022/06/04 02:58:33;;;;;;;10.40;9.50;;;18.50;99.90;;;;;;5065244;28;20200;-70
2022/06/04 03:00:59;;;;;;;11.57;10.20;;;18.50;99.90;;;;;;5068447;28;20264;-70
2022/06/04 03:03:27;;;;;;;10.93;9.87;;;18.50;99.90;;;;;;5061120;28;20207;-70
2022/06/04 03:06:01;;;;;;;9.70;8.87;;;18.50;99.90;;;;;;5067841;28;20299;-70
2022/06/04 03:08:29;;;;;;;9.27;8.43;;;18.50;99.90;;;;;;5066070;28;20181;-70
2022/06/04 03:10:55;;;;;;;9.77;8.87;;;18.50;99.90;;;;;;5063111;28;20177;-70
2022/06/04 03:13:21;;;;;;;9.33;8.43;;;18.50;99.90;;;;;;5059012;28;20258;-70
2022/06/04 03:15:47;;;;;;;10.90;9.87;;;18.40;99.90;;;;;;5059162;28;20212;-70
2022/06/04 03:18:14;;;;;;;9.20;8.40;;;18.30;99.90;;;;;;5058103;28;20178;-70
2022/06/04 03:20:41;;;;;;;10.70;9.80;;;18.40;99.90;;;;;;5059515;28;20185;-70
2022/06/04 03:23:07;;;;;;;10.87;9.87;;;18.30;99.90;;;;;;5059199;28;20274;-70
2022/06/04 03:25:34;;;;;;;8.30;7.60;;;18.40;99.90;;;;;;5075142;28;20214;-70
2022/06/04 03:28:00;;;;;;;10.20;9.27;;;18.30;99.90;;;;;;5063919;28;20190;-70
2022/06/04 03:30:26;;;;;;;9.60;8.73;;;18.30;99.90;;;;;;5061411;28;20243;-70
2022/06/04 03:32:53;;;;;;;10.43;9.43;;;18.30;99.90;;;;;;5064379;28;20193;-70
2022/06/04 03:35:19;;;;;;;9.30;8.50;;;18.20;99.90;;;;;;5063945;28;20219;-70
2022/06/04 03:37:45;;;;;;;9.43;8.63;;;18.20;99.90;;;;;;5063063;28;20616;-70
2022/06/04 03:40:11;;;;;;;9.97;9.10;;;18.20;99.90;;;;;;5063482;28;20745;-71
2022/06/04 03:42:37;;;;;;;8.83;8.03;;;18.30;99.90;;;;;;5066869;28;20181;-70
2022/06/04 03:45:05;;;;;;;8.17;7.47;;;18.30;99.90;;;;;;5061078;28;20215;-70
2022/06/04 03:47:36;;;;;;;8.30;7.70;;;18.30;99.90;;;;;;5063990;28;20260;-70
2022/06/04 03:50:14;;;;;;;8.33;7.73;;;18.30;99.90;;;;;;5067405;28;20176;-70
2022/06/04 03:52:40;;;;;;;8.93;8.07;;;18.30;99.90;;;;;;5064413;28;20272;-70
2022/06/04 03:55:07;;;;;;;10.23;9.23;;;18.40;99.90;;;;;;5066346;28;20719;-70
2022/06/04 03:57:45;;;;;;;10.20;9.30;;;18.40;99.90;;;;;;5068512;28;20230;-70
2022/06/04 04:00:31;;;;;;;11.00;9.93;;;18.40;99.90;;;;;;5058015;28;20284;-70
2022/06/04 04:03:00;;;;;;;11.53;10.17;;;18.30;99.90;;;;;;5060970;28;20178;-70
2022/06/04 04:05:35;;;;;;;11.03;10.13;;;18.20;99.90;;;;;;5063201;28;20690;-70
2022/06/04 04:08:03;;;;;;;11.10;10.07;;;18.20;99.90;;;;;;5063680;28;20187;-70
2022/06/04 04:10:30;;;;;;;10.90;9.90;;;18.30;99.90;;;;;;5069083;28;20180;-70
2022/06/04 04:12:56;;;;;;;13.93;12.23;;;18.30;99.90;;;;;;5055667;28;20178;-70
2022/06/04 04:15:23;;;;;;;13.37;12.07;;;18.40;99.90;;;;;;5057786;28;20245;-70
2022/06/04 04:17:49;;;;;;;14.30;12.90;;;18.30;99.90;;;;;;5064534;28;20181;-70
2022/06/04 04:20:18;;;;;;;13.17;11.93;;;18.40;99.90;;;;;;5051779;28;20238;-70
2022/06/04 04:22:45;;;;;;;13.17;11.97;;;18.30;99.90;;;;;;5069470;28;20601;-70
2022/06/04 04:25:13;;;;;;;12.07;10.87;;;18.30;99.90;;;;;;5063473;28;20193;-70
2022/06/04 04:27:39;;;;;;;12.57;11.33;;;18.20;99.90;;;;;;5068328;28;20192;-70
2022/06/04 04:30:06;;;;;;;12.40;11.17;;;18.20;99.90;;;;;;5071923;28;20177;-70
2022/06/04 04:32:32;;;;;;;12.57;11.47;;;18.20;99.90;;;;;;5063934;28;20212;-70
2022/06/04 04:34:59;;;;;;;12.17;11.07;;;18.20;99.90;;;;;;5063823;28;20249;-70
2022/06/04 04:37:25;;;;;;;11.80;10.67;;;18.20;99.90;;;;;;5063418;28;20548;-70
2022/06/04 04:39:51;;;;;;;12.90;11.73;;;18.20;99.90;;;;;;5072843;28;20181;-70
2022/06/04 04:42:17;;;;;;;12.53;11.43;;;18.30;99.90;;;;;;5068175;28;20630;-70
2022/06/04 04:44:43;;;;;;;11.90;10.80;;;18.40;99.90;;;;;;5066671;28;20297;-70
2022/06/04 04:47:09;;;;;;;12.63;11.23;;;18.40;99.90;;;;;;5072625;28;20181;-70
2022/06/04 04:49:35;;;;;;;9.63;8.83;;;18.50;99.90;;;;;;5058359;28;20186;-70
2022/06/04 04:52:01;;;;;;;12.10;10.80;;;18.50;99.90;;;;;;5064077;28;20201;-70
2022/06/04 04:54:28;;;;;;;13.93;12.67;;;18.60;99.90;;;;;;5072888;28;20235;-70
2022/06/04 04:56:54;;;;;;;14.17;12.87;;;18.70;99.90;;;;;;5072119;28;20215;-70
2022/06/04 04:59:20;;;;;;;14.47;13.00;;;18.70;99.90;;;;;;5063968;28;20174;-70
2022/06/04 05:01:46;;;;;;;14.87;13.37;;;18.80;99.90;;;;;;5057578;28;20268;-71
2022/06/04 05:04:12;;;;;;;13.63;12.30;;;18.80;99.90;;;;;;5069129;28;20289;-70
2022/06/04 05:06:38;;;;;;;12.50;11.40;;;18.90;99.90;;;;;;5067579;28;20212;-70
2022/06/04 05:09:03;;;;;;;12.53;11.27;;;18.90;99.90;;;;;;5049170;28;20265;-70
2022/06/04 05:11:32;;;;;;;10.67;9.77;;;18.90;99.90;;;;;;5060208;28;20211;-70
2022/06/04 05:13:59;;;;;;;12.33;9.90;;;19.00;99.90;;;;;;5065997;28;20209;-70
2022/06/04 05:16:31;;;;;;;10.00;9.17;;;19.10;99.90;;;;;;5064621;28;20205;-70
2022/06/04 05:18:57;;;;;;;11.10;10.10;;;19.20;99.90;;;;;;5061549;28;20186;-70
2022/06/04 05:21:27;;;;;;;11.30;10.40;;;19.30;99.90;;;;;;5069316;28;20208;-70
2022/06/04 05:23:57;;;;;;;11.73;10.67;;;19.50;99.90;;;;;;5062513;28;20197;-70
2022/06/04 05:26:23;;;;;;;11.93;10.87;;;19.60;99.90;;;;;;5061657;28;20705;-71
2022/06/04 05:28:53;;;;;;;12.00;11.00;;;19.70;99.90;;;;;;5062166;28;20196;-70
2022/06/04 05:31:20;;;;;;;12.13;11.13;;;19.60;99.90;;;;;;5063904;28;20197;-70
2022/06/04 05:33:46;;;;;;;11.90;10.90;;;19.70;99.90;;;;;;5062850;28;20209;-70
2022/06/04 05:36:13;;;;;;;11.37;10.47;;;19.90;99.90;;;;;;5066664;28;20232;-70
2022/06/04 05:38:39;;;;;;;12.43;11.33;;;20.00;99.90;;;;;;5065822;28;20200;-70
2022/06/04 05:41:08;;;;;;;11.13;10.13;;;20.00;99.90;;;;;;5063101;28;20185;-70
2022/06/04 05:43:35;;;;;;;10.57;9.67;;;20.10;99.90;;;;;;5064028;28;20222;-70
2022/06/04 05:46:07;;;;;;;9.10;8.40;;;20.10;99.90;;;;;;5057555;28;20201;-70
2022/06/04 05:48:37;;;;;;;10.30;9.40;;;20.20;99.90;;;;;;5065790;28;20186;-70
2022/06/04 05:51:02;;;;;;;10.50;9.60;;;20.20;99.90;;;;;;5063436;28;20186;-70
2022/06/04 05:53:28;;;;;;;9.97;8.90;;;20.20;99.90;;;;;;5065175;28;20204;-70
2022/06/04 05:55:55;;;;;;;11.63;10.60;;;20.40;99.90;;;;;;5063921;28;20231;-70
2022/06/04 05:58:21;;;;;;;10.03;9.13;;;20.50;99.90;;;;;;5060887;28;20646;-70
2022/06/04 06:00:47;;;;;;;9.57;8.70;;;20.50;99.90;;;;;;5064838;28;20284;-71
2022/06/04 06:03:13;;;;;;;9.97;8.93;;;20.60;99.90;;;;;;5062890;28;20273;-70
2022/06/04 06:05:44;;;;;;;9.30;8.60;;;20.70;99.90;;;;;;5057940;28;20276;-70
2022/06/04 06:08:10;;;;;;;10.27;9.27;;;20.80;99.90;;;;;;5061760;28;20747;-70
2022/06/04 06:10:46;;;;;;;10.47;9.47;;;20.80;99.90;;;;;;5046936;28;20182;-70
2022/06/04 06:13:12;;;;;;;9.37;8.53;;;20.80;99.90;;;;;;5041158;28;20215;-70
2022/06/04 06:15:39;;;;;;;10.03;8.97;;;20.90;99.90;;;;;;5060108;28;20201;-71
2022/06/04 06:18:06;;;;;;;9.20;8.47;;;20.80;99.90;;;;;;5059738;28;20217;-71
2022/06/04 06:20:33;;;;;;;9.20;8.50;;;20.80;99.90;;;;;;5064607;28;20182;-71
2022/06/04 06:22:59;;;;;;;9.23;8.43;;;20.90;99.90;;;;;;5058258;28;20198;-71
2022/06/04 06:25:26;;;;;;;9.27;8.47;;;20.90;99.90;;;;;;5065060;28;20238;-73
2022/06/04 06:27:52;;;;;;;9.40;8.50;;;20.90;99.90;;;;;;5068187;28;20647;-73
2022/06/04 06:30:18;;;;;;;9.47;8.00;;;21.00;99.90;;;;;;5067302;28;20491;-71
2022/06/04 06:32:44;;;;;;;8.70;7.43;;;21.10;99.90;;;;;;5067315;28;20193;-74
2022/06/04 06:35:10;;;;;;;7.97;7.27;;;21.10;99.90;;;;;;5071542;28;20739;-71
2022/06/04 06:37:36;;;;;;;9.13;7.93;;;21.20;99.90;;;;;;5064974;28;20211;-74
2022/06/04 06:40:06;;;;;;;9.03;8.23;;;21.30;99.90;;;;;;5066199;28;20273;-70
2022/06/04 06:42:32;;;;;;;9.20;8.47;;;21.40;99.90;;;;;;5067489;28;20209;-71
2022/06/04 06:45:05;;;;;;;9.60;8.80;;;21.50;99.90;;;;;;5060649;28;20233;-70
2022/06/04 06:47:35;;;;;;;8.47;7.77;;;21.60;99.90;;;;;;5065618;28;20257;-70
2022/06/04 06:50:01;;;;;;;9.27;8.40;;;21.70;99.90;;;;;;5061542;28;20205;-71
2022/06/04 06:52:26;;;;;;;8.00;7.30;;;21.80;99.90;;;;;;5054993;28;20312;-73
2022/06/04 06:54:52;;;;;;;9.63;8.63;;;21.90;99.90;;;;;;5062765;28;21061;-73
2022/06/04 06:57:18;;;;;;;8.97;8.17;;;22.00;99.90;;;;;;5065504;28;20280;-73
2022/06/04 06:59:47;;;;;;;9.30;8.50;;;22.10;99.90;;;;;;5063478;28;20311;-73
2022/06/04 07:02:13;;;;;;;9.87;9.07;;;22.10;99.90;;;;;;5064971;28;20177;-71
2022/06/04 07:04:39;;;;;;;12.07;8.93;;;22.20;99.90;;;;;;5043050;28;20254;-73
2022/06/04 07:07:05;;;;;;;9.00;8.20;;;22.20;99.90;;;;;;5065814;28;20268;-71
2022/06/04 07:09:38;;;;;;;8.30;7.70;;;22.30;99.90;;;;;;5077595;28;20185;-71
2022/06/04 07:12:06;;;;;;;7.03;6.37;;;22.40;99.90;;;;;;5071964;28;20181;-71
2022/06/04 07:14:32;;;;;;;6.03;5.53;;;22.40;99.90;;;;;;5078658;28;20205;-72
2022/06/04 07:16:58;;;;;;;5.60;5.03;;;22.50;99.90;;;;;;5073117;28;20216;-71
2022/06/04 07:19:26;;;;;;;6.40;5.90;;;22.70;99.90;;;;;;5054101;28;20277;-72
2022/06/04 07:21:55;;;;;;;8.57;7.87;;;22.80;99.90;;;;;;5040179;28;20192;-71
2022/06/04 07:24:21;;;;;;;7.93;7.33;;;22.70;99.90;;;;;;5075783;28;20598;-71
2022/06/04 07:26:48;;;;;;;8.90;8.20;;;22.80;99.90;;;;;;5074095;28;20261;-72
2022/06/04 07:29:14;;;;;;;8.73;7.93;;;22.70;99.90;;;;;;5079641;28;20191;-71
2022/06/04 07:31:40;;;;;;;9.17;8.37;;;22.70;99.90;;;;;;5066041;28;20257;-71
2022/06/04 07:34:06;;;;;;;9.80;9.00;;;22.70;99.90;;;;;;5079210;28;20212;-71
2022/06/04 07:36:36;;;;;;;10.13;9.33;;;22.70;99.90;;;;;;5072143;28;20210;-71
2022/06/04 07:39:04;;;;;;;10.83;9.83;;;22.70;99.90;;;;;;5073754;28;20267;-71
2022/06/04 07:41:32;;;;;;;11.30;10.13;;;22.70;99.90;;;;;;5077458;28;20700;-72
2022/06/04 07:44:00;;;;;;;12.57;10.53;;;22.70;99.90;;;;;;5076721;28;20309;-71
2022/06/04 07:46:28;;;;;;;11.13;10.03;;;22.80;99.90;;;;;;5072900;28;20242;-71
2022/06/04 07:48:56;;;;;;;12.23;11.13;;;22.80;99.90;;;;;;5069318;28;20260;-72
2022/06/04 07:51:21;;;;;;;11.23;10.23;;;22.90;99.90;;;;;;5071961;28;20253;-72
2022/06/04 07:53:48;;;;;;;12.10;10.90;;;23.10;99.90;;;;;;5069536;28;20200;-71
2022/06/04 07:56:16;;;;;;;14.00;12.60;;;23.20;99.90;;;;;;5075619;28;20750;-73
2022/06/04 07:58:42;;;;;;;13.07;11.87;;;23.30;99.90;;;;;;5072666;28;20184;-72
2022/06/04 08:01:10;;;;;;;13.57;12.47;;;23.30;99.90;;;;;;5061760;28;20524;-71
2022/06/04 08:03:37;;;;;;;12.73;11.47;;;23.40;99.90;;;;;;5073644;28;20196;-73
2022/06/04 08:06:04;;;;;;;11.67;10.57;;;23.40;99.90;;;;;;5075233;28;20185;-72
2022/06/04 08:08:32;;;;;;;12.37;11.10;;;23.40;99.90;;;;;;5074434;28;20189;-72
2022/06/04 08:10:59;;;;;;;11.47;10.27;;;23.50;99.90;;;;;;5077383;28;20185;-72
2022/06/04 08:15:55;;;;;;;12.57;11.47;;;23.60;99.90;;;;;;5068035;28;20205;-74
2022/06/04 08:18:21;;;;;;;13.10;11.90;;;23.70;99.90;;;;;;5078277;28;20268;-74
2022/06/04 08:20:47;;;;;;;11.53;10.60;;;23.70;99.90;;;;;;5075841;28;20211;-72
2022/06/04 08:23:13;;;;;;;12.23;11.13;;;23.70;99.90;;;;;;5073425;28;20716;-73
2022/06/04 08:25:41;;;;;;;10.80;9.80;;;23.60;99.90;;;;;;5071739;28;20185;-72
2022/06/04 08:28:07;;;;;;;11.80;10.80;;;23.60;99.90;;;;;;5074733;28;20182;-72
2022/06/04 08:30:34;;;;;;;10.40;9.50;;;23.60;99.90;;;;;;5076798;28;20180;-73
2022/06/04 08:33:00;;;;;;;11.47;10.37;;;23.50;99.90;;;;;;5076595;28;20279;-72
2022/06/04 08:35:26;;;;;;;9.57;8.77;;;23.60;99.90;;;;;;5072036;28;20625;-71
2022/06/04 08:37:52;;;;;;;8.77;7.97;;;23.60;99.90;;;;;;5071710;28;20205;-73
2022/06/04 08:40:26;;;;;;;8.73;7.93;;;23.70;99.90;;;;;;5055001;28;20851;-73
2022/06/04 08:43:16;;;;;;;8.30;7.70;;;23.70;99.90;;;;;;5055961;28;20185;-72
2022/06/04 08:45:42;;;;;;;7.60;6.90;;;23.80;99.90;;;;;;5059454;28;20177;-73
2022/06/04 08:48:19;;;;;;;8.33;7.53;;;23.80;99.90;;;;;;5065316;28;20198;-72
2022/06/04 08:50:45;;;;;;;6.73;6.23;;;23.90;99.90;;;;;;5056118;28;20189;-72
2022/06/04 08:53:19;;;;;;;7.47;6.83;;;24.10;97.90;;;;;;5057858;28;20181;-72
2022/06/04 08:59:00;;;;;;;7.10;6.50;;;24.50;94.00;;;;;;5064370;28;20178;-72
2022/06/04 09:01:32;;;;;;;6.00;5.50;;;24.60;90.80;;;;;;5058007;28;20722;-73
2022/06/04 09:04:35;;;;;;;6.23;5.47;;;24.70;91.70;;;;;;5063201;28;20550;-72
2022/06/04 09:07:07;;;;;;;6.20;5.70;;;24.90;87.50;;;;;;5064115;28;20642;-72
2022/06/04 09:09:40;;;;;;;5.07;4.60;;;25.10;81.10;;;;;;5073180;28;20192;-73
2022/06/04 09:12:24;;;;;;;5.40;4.90;;;25.30;79.10;;;;;;5063539;28;20188;-73
2022/06/04 09:15:02;;;;;;;5.00;4.50;;;25.40;76.70;;;;;;5071261;28;20215;-72
2022/06/04 09:17:42;;;;;;;5.00;4.60;;;25.40;77.10;;;;;;5069402;28;20263;-73
2022/06/04 09:20:40;;;;;;;5.40;4.80;;;25.50;77.10;;;;;;5063569;28;20180;-72
2022/06/04 09:23:12;;;;;;;6.90;4.50;;;25.60;74.10;;;;;;5065264;28;20192;-72
2022/06/04 09:25:45;;;;;;;4.70;4.30;;;25.60;75.20;;;;;;5060520;28;20199;-72
2022/06/04 09:28:45;;;;;;;5.03;4.63;;;25.60;72.50;;;;;;5050401;28;20562;-73
2022/06/04 09:31:26;;;;;;;5.00;4.60;;;25.50;72.30;;;;;;5059276;28;20564;-72
2022/06/04 09:34:02;;;;;;;5.23;4.73;;;25.50;74.70;;;;;;5064232;28;20228;-72
2022/06/04 09:36:32;;;;;;;4.97;4.47;;;25.40;74.20;;;;;;5058234;28;20205;-72
2022/06/04 09:39:05;;;;;;;5.17;4.50;;;25.30;73.50;;;;;;5063316;28;20177;-72
2022/06/04 09:41:33;;;;;;;4.47;4.07;;;25.20;75.40;;;;;;5057602;28;20205;-73
2022/06/04 09:44:19;;;;;;;5.70;4.57;;;25.20;78.70;;;;;;5060626;28;20198;-72
2022/06/04 09:46:48;;;;;;;4.80;4.43;;;25.30;78.30;;;;;;5058599;28;20279;-74
2022/06/04 09:49:40;;;;;;;4.97;4.13;;;25.20;78.10;;;;;;5066478;28;20659;-73
2022/06/04 09:52:23;;;;;;;4.63;4.30;;;25.10;79.50;;;;;;5056223;28;20194;-73
2022/06/04 09:55:20;;;;;;;4.70;4.30;;;25.10;80.10;;;;;;5070934;28;20618;-72
2022/06/04 09:58:04;;;;;;;5.20;4.70;;;25.10;80.70;;;;;;5047100;28;20592;-71
2022/06/04 10:00:34;;;;;;;5.33;4.83;;;25.00;81.90;;;;;;5056940;28;20188;-73
2022/06/04 10:03:04;;;;;;;4.90;4.50;;;24.90;82.70;;;;;;5060070;28;20165;-72
2022/06/04 10:05:31;;;;;;;4.83;4.40;;;24.90;86.00;;;;;;5061671;28;20200;-72
2022/06/04 10:07:57;;;;;;;4.87;4.37;;;24.80;88.90;;;;;;5073595;28;20223;-72
2022/06/04 10:10:38;;;;;;;6.17;4.83;;;24.80;89.00;;;;;;5057893;28;20178;-73
2022/06/04 10:16:21;;;;;;;6.23;4.93;;;24.60;92.70;;;;;;5071442;28;20210;-72
2022/06/04 10:19:04;;;;;;;12.33;5.50;;;24.60;95.00;;;;;;5075540;28;20193;-72
2022/06/04 10:21:32;;;;;;;5.37;4.87;;;24.70;95.30;;;;;;5074262;28;20201;-72
2022/06/04 10:24:00;;;;;;;6.03;5.10;;;24.50;95.40;;;;;;5073066;28;20249;-72
2022/06/04 10:26:46;;;;;;;5.47;5.07;;;24.50;96.50;;;;;;5072933;28;20183;-72
2022/06/04 10:29:43;;;;;;;4.97;4.57;;;24.50;98.30;;;;;;5070798;28;20272;-72
2022/06/04 10:32:46;;;;;;;4.63;4.23;;;24.50;99.40;;;;;;5074566;28;20204;-74
2022/06/04 10:35:50;;;;;;;5.97;5.37;;;24.60;99.90;;;;;;5073011;28;20205;-73
2022/06/04 10:38:22;;;;;;;5.07;4.67;;;24.60;99.90;;;;;;5067923;28;20181;-72
2022/06/04 10:40:57;;;;;;;5.63;5.13;;;24.60;99.60;;;;;;5076454;28;20203;-72
2022/06/04 10:43:41;;;;;;;5.73;5.27;;;24.60;99.50;;;;;;5055080;28;20203;-72
2022/06/04 10:46:30;;;;;;;6.40;5.80;;;24.70;99.40;;;;;;5056195;28;20186;-73
2022/06/04 10:49:08;;;;;;;6.37;5.87;;;24.80;97.70;;;;;;5067501;28;20189;-74
2022/06/04 10:51:51;;;;;;;6.83;6.13;;;25.10;95.70;;;;;;5067240;28;20212;-73
2022/06/04 10:54:16;;;;;;;5.50;5.00;;;25.10;93.30;;;;;;5059672;28;20206;-74
2022/06/04 10:56:47;;;;;;;6.17;5.67;;;25.40;93.30;;;;;;5065242;28;20217;-75
2022/06/04 10:59:27;;;;;;;6.93;6.40;;;25.60;92.30;;;;;;5062656;28;20186;-74
2022/06/04 11:02:12;;;;;;;7.50;6.80;;;25.90;86.20;;;;;;5069043;28;20177;-72
2022/06/04 11:04:46;;;;;;;7.17;6.13;;;26.10;83.60;;;;;;5068325;28;20206;-72
2022/06/04 11:07:31;;;;;;;5.60;5.10;;;26.30;82.30;;;;;;5076203;28;20279;-74
2022/06/04 11:09:58;;;;;;;6.03;5.53;;;26.40;79.40;;;;;;5065032;28;20717;-74
2022/06/04 11:12:32;;;;;;;5.63;5.23;;;26.50;76.00;;;;;;5068241;28;20183;-74
2022/06/04 11:15:06;;;;;;;6.03;5.53;;;26.70;77.00;;;;;;5072993;28;20213;-74
2022/06/04 11:17:48;;;;;;;6.00;5.50;;;26.90;74.10;;;;;;5063280;28;22032;-74
2022/06/04 11:20:20;;;;;;;5.93;5.43;;;26.90;72.90;;;;;;5074344;28;20176;-74
2022/06/04 11:22:53;;;;;;;6.53;5.93;;;27.00;71.50;;;;;;5067096;28;20250;-74
2022/06/04 11:25:28;;;;;;;5.90;5.40;;;27.20;69.30;;;;;;5074120;28;20201;-74
2022/06/04 11:27:58;;;;;;;6.60;5.93;;;27.30;68.40;;;;;;5068572;28;20179;-74
2022/06/04 11:30:38;;;;;;;5.70;5.20;;;27.60;67.60;;;;;;5073333;28;20635;-74
2022/06/04 11:33:48;;;;;;;6.43;5.93;;;27.80;66.30;;;;;;5068817;28;20675;-74
2022/06/04 11:36:31;;;;;;;5.70;5.30;;;27.80;64.80;;;;;;5067251;28;20746;-74
2022/06/04 11:39:28;;;;;;;7.00;6.37;;;27.60;63.70;;;;;;5072982;28;20231;-76
2022/06/04 11:42:09;;;;;;;6.47;5.80;;;27.60;63.70;;;;;;5074268;28;20181;-73
2022/06/04 11:44:50;;;;;;;6.77;6.17;;;27.80;64.50;;;;;;5073424;28;20204;-70
2022/06/04 11:47:29;;;;;;;6.37;5.77;;;28.10;63.30;;;;;;5076301;28;20183;-71
2022/06/04 11:50:11;;;;;;;8.23;5.50;;;28.40;61.70;;;;;;5078897;28;20663;-71
2022/06/04 11:53:00;;;;;;;5.80;5.40;;;28.60;62.00;;;;;;5074955;28;20662;-70
2022/06/04 11:55:37;;;;;;;5.63;5.23;;;29.10;59.50;;;;;;5074431;28;20761;-70
2022/06/04 11:58:28;;;;;;;6.10;5.50;;;29.40;58.80;;;;;;5081130;28;20177;-70
2022/06/04 12:00:59;;;;;;;6.47;5.97;;;30.00;57.80;;;;;;5075826;28;20634;-70
2022/06/04 12:03:37;;;;;;;5.37;4.97;;;30.10;57.00;;;;;;5074149;28;20209;-71
2022/06/04 12:06:07;;;;;;;5.87;5.30;;;30.20;56.40;;;;;;5073007;28;20258;-70
2022/06/04 12:08:49;;;;;;;6.83;6.20;;;30.50;56.30;;;;;;5072872;28;20181;-70
2022/06/04 12:11:43;;;;;;;5.87;5.40;;;31.00;54.90;;;;;;5069343;28;20630;-70
2022/06/04 12:14:37;;;;;;;5.77;5.17;;;31.20;54.00;;;;;;5076791;28;20692;-70
2022/06/04 12:17:15;;;;;;;6.30;5.67;;;31.00;53.80;;;;;;5071967;28;20563;-70
2022/06/04 12:25:41;;;;;;;6.70;6.10;;;31.30;54.10;;;;;;5072356;28;20670;-71
2022/06/04 12:28:40;;;;;;;7.00;6.33;;;31.20;53.80;;;;;;5074966;28;20722;-71
2022/06/04 12:31:07;;;;;;;7.33;6.73;;;31.00;54.30;;;;;;5073302;28;20228;-70
2022/06/04 12:33:39;;;;;;;8.73;5.67;;;31.10;54.40;;;;;;5072884;28;20203;-70
2022/06/04 12:36:12;;;;;;;6.37;5.87;;;31.80;53.70;;;;;;5077745;28;20283;-70
2022/06/04 12:38:40;;;;;;;7.13;6.40;;;32.20;52.90;;;;;;5079636;28;20274;-71
2022/06/04 12:41:19;;;;;;;6.10;5.60;;;32.60;52.50;;;;;;5074740;28;20695;-71
2022/06/04 12:43:47;;;;;;;6.83;6.07;;;33.20;51.20;;;;;;5076442;28;20200;-70
2022/06/04 12:46:34;;;;;;;5.90;5.43;;;33.70;50.50;;;;;;5059408;28;20212;-71
2022/06/04 12:49:02;;;;;;;4.90;4.50;;;34.30;49.10;;;;;;5075922;28;20304;-71
2022/06/04 12:51:47;;;;;;;5.00;4.50;;;34.90;48.90;;;;;;5077104;28;20190;-71
2022/06/04 12:54:49;;;;;;;5.83;5.33;;;35.10;47.70;;;;;;5074950;28;20740;-71
2022/06/04 12:57:40;;;;;;;4.43;4.13;;;;;;;;;;5072944;28;20266;-71
2022/06/04 13:00:22;;;;;;;5.37;4.87;;;36.40;45.70;;;;;;5075837;28;20180;-72
2022/06/04 13:03:29;;;;;;;4.90;4.30;;;36.10;45.10;;;;;;5056609;28;20302;-72
2022/06/04 13:06:00;;;;;;;4.60;4.20;;;35.00;46.60;;;;;;5074230;28;20190;-71
2022/06/04 13:08:45;;;;;;;5.20;3.90;;;;;;;;;;5077452;28;20172;-73
2022/06/04 13:11:30;;;;;;;5.00;4.50;;;;;;;;;;5079332;28;20194;-74
2022/06/04 13:13:57;;;;;;;4.43;4.03;;;;;;;;;;5074736;28;20198;-72
2022/06/04 13:16:27;;;;;;;4.43;4.03;;;;;;;;;;5077769;28;20218;-73
2022/06/04 13:19:14;;;;;;;4.03;3.73;;;;;;;;;;5073249;28;20202;-71
2022/06/04 13:21:42;;;;;;;3.33;3.13;;;;;;;;;;5073593;28;20275;-71
2022/06/04 13:24:28;;;;;;;4.07;3.77;;;;;;;;;;5072112;28;21705;-70
2022/06/04 13:26:59;;;;;;;4.20;3.90;;;;;;;;;;5076542;28;20191;-70
2022/06/04 13:29:28;;;;;;;4.17;3.87;;;;;;;;;;5074554;28;20183;-71
2022/06/04 13:31:55;;;;;;;4.10;3.70;;;;;;;;;;5069843;28;20299;-70
2022/06/04 13:34:26;;;;;;;3.13;2.93;;;;;;;;;;5063211;28;20306;-73
2022/06/04 13:36:56;;;;;;;3.43;3.23;;;;;;;;;;5066588;28;20223;-71
2022/06/04 13:39:23;;;;;;;3.00;2.80;;;;;;;;;;5525599;22;20237;-73